Time;durP1;ratioP1;P1;durP2;ratioP2;P2;SDS_P1;SDS_P2;PMS_P1;PMS_P2;Temp;Humidity;BMP_temperature;BMP_pressure;BME280_temperature;BME280_humidity;BME280_pressure;Samples;Min_cycle;Max_cycle;Signal;HPM_P1;HPM_P2
2022/08/09 00:02:05;;;;;;;;;;;15.10;99.90;;;;;;5031483;28;20035;-90
2022/08/09 00:04:31;;;;;;;;;;;15.10;99.90;;;;;;5032905;28;19963;-90
2022/08/09 00:06:56;;;;;;;;;;;15.00;99.90;;;;;;5032552;28;19909;-90
2022/08/09 00:09:22;;;;;;;;;;;15.10;99.90;;;;;;5032954;28;19908;-90
2022/08/09 00:11:48;;;;;;;;;;;15.00;99.90;;;;;;5031284;28;19956;-90
2022/08/09 00:14:14;;;;;;;;;;;15.00;99.90;;;;;;5031744;28;19956;-90
2022/08/09 00:16:39;;;;;;;;;;;15.00;99.90;;;;;;5033876;28;19905;-89
2022/08/09 00:19:05;;;;;;;;;;;15.00;99.90;;;;;;5038674;28;19912;-90
2022/08/09 00:21:31;;;;;;;;;;;14.90;99.90;;;;;;5035868;28;20368;-89
2022/08/09 00:23:57;;;;;;;;;;;15.00;99.90;;;;;;5035645;28;19916;-90
2022/08/09 00:26:27;;;;;;;;;;;14.90;99.90;;;;;;5035304;28;19905;-89
2022/08/09 00:28:52;;;;;;;;;;;14.90;99.90;;;;;;5034904;28;19905;-90
2022/08/09 00:31:20;;;;;;;;;;;14.90;99.90;;;;;;5034734;28;19921;-90
2022/08/09 00:33:46;;;;;;;;;;;14.80;99.90;;;;;;5035013;28;19908;-90
2022/08/09 00:36:11;;;;;;;;;;;14.80;99.90;;;;;;5035077;28;19999;-90
2022/08/09 00:38:38;;;;;;;;;;;14.70;99.90;;;;;;5035172;28;19909;-90
2022/08/09 00:41:04;;;;;;;;;;;14.70;99.90;;;;;;5018194;28;19909;-91
2022/08/09 00:43:30;;;;;;;;;;;14.70;99.90;;;;;;5035914;28;19908;-89
2022/08/09 00:45:56;;;;;;;;;;;14.60;99.90;;;;;;5034323;28;20327;-90
2022/08/09 00:48:21;;;;;;;;;;;14.60;99.90;;;;;;5034801;28;19916;-89
2022/08/09 00:50:47;;;;;;;;;;;14.60;99.90;;;;;;5034757;28;19923;-88
2022/08/09 00:53:13;;;;;;;;;;;14.70;99.90;;;;;;5035566;28;20620;-91
2022/08/09 00:55:39;;;;;;;;;;;14.70;99.90;;;;;;5034092;28;19992;-89
2022/08/09 00:58:04;;;;;;;;;;;14.60;99.90;;;;;;5018403;28;19909;-90
2022/08/09 01:00:30;;;;;;;;;;;14.70;99.90;;;;;;5034615;28;19908;-90
2022/08/09 01:03:07;;;;;;;;;;;14.60;99.90;;;;;;5034606;28;19905;-90
2022/08/09 01:06:06;;;;;;;;;;;14.60;99.90;;;;;;5035352;28;19912;-89
2022/08/09 01:08:40;;;;;;;;;;;14.60;99.90;;;;;;4974831;28;20530;-89
2022/08/09 01:11:22;;;;;;;;;;;14.60;99.90;;;;;;5017352;28;19920;-89
2022/08/09 01:14:06;;;;;;;;;;;14.50;99.90;;;;;;5017684;28;19905;-88
2022/08/09 01:16:34;;;;;;;;;;;14.50;99.90;;;;;;5035788;28;19959;-87
2022/08/09 01:19:03;;;;;;;;;;;14.40;99.90;;;;;;5034952;28;19905;-88
2022/08/09 01:21:48;;;;;;;;;;;14.40;99.90;;;;;;5041939;28;19905;-87
2022/08/09 01:24:16;;;;;;;;;;;14.30;99.90;;;;;;5038563;28;19897;-89
2022/08/09 01:26:54;;;;;;;;;;;14.30;99.90;;;;;;5029662;28;19920;-89
2022/08/09 01:29:38;;;;;;;;;;;14.20;99.90;;;;;;5017927;28;19909;-88
2022/08/09 01:32:04;;;;;;;;;;;14.20;99.90;;;;;;5037399;28;19925;-88
2022/08/09 01:34:32;;;;;;;;;;;14.20;99.90;;;;;;5028154;28;19952;-87
2022/08/09 01:36:59;;;;;;;;;;;14.10;99.90;;;;;;5028516;28;19905;-88
2022/08/09 01:39:26;;;;;;;;;;;14.10;99.90;;;;;;5044482;28;19996;-89
2022/08/09 01:41:52;;;;;;;;;;;14.10;99.90;;;;;;5028055;28;19909;-87
2022/08/09 01:44:19;;;;;;;;;;;14.10;99.90;;;;;;5045858;28;19912;-88
2022/08/09 01:46:45;;;;;;;;;;;14.10;99.90;;;;;;5028338;28;19905;-90
2022/08/09 01:49:13;;;;;;;;;;;14.00;99.90;;;;;;5028426;28;19905;-88
2022/08/09 01:51:44;;;;;;;;;;;14.10;99.90;;;;;;5027829;28;19959;-87
2022/08/09 01:54:10;;;;;;;;;;;14.00;99.90;;;;;;5027839;28;19965;-88
2022/08/09 01:56:38;;;;;;;;;;;14.10;99.90;;;;;;5020377;28;20015;-88
2022/08/09 01:59:06;;;;;;;;;;;14.00;99.90;;;;;;5017415;28;19912;-87
2022/08/09 02:01:32;;;;;;;;;;;14.00;99.90;;;;;;5017530;28;19912;-88
2022/08/09 02:03:58;;;;;;;;;;;14.00;99.90;;;;;;5017584;28;19916;-88
2022/08/09 02:09:10;;;;;;;;;;;13.90;99.90;;;;;;5021047;28;19916;-88
2022/08/09 02:11:35;;;;;;;;;;;13.90;99.90;;;;;;5045331;28;19916;-87
2022/08/09 02:14:04;;;;;;;;;;;13.90;99.90;;;;;;5047061;28;20166;-86
2022/08/09 02:16:32;;;;;;;;;;;13.90;99.90;;;;;;5025506;28;19991;-87
2022/08/09 02:18:58;;;;;;;;;;;13.80;99.90;;;;;;5016277;28;20768;-87
2022/08/09 02:21:24;;;;;;;;;;;13.80;99.90;;;;;;5016512;28;19913;-87
2022/08/09 02:23:54;;;;;;;;;;;13.70;99.90;;;;;;5015902;28;19996;-87
2022/08/09 02:26:21;;;;;;;;;;;13.80;99.90;;;;;;5032550;28;19948;-90
2022/08/09 02:28:50;;;;;;;;;;;13.70;99.90;;;;;;5017052;28;19908;-87
2022/08/09 02:31:26;;;;;;;;;;;13.70;99.90;;;;;;5032409;28;19917;-87
2022/08/09 02:33:54;;;;;;;;;;;13.60;99.90;;;;;;5016019;28;19905;-88
2022/08/09 02:36:32;;;;;;;;;;;13.60;99.90;;;;;;5016326;28;19905;-87
2022/08/09 02:39:01;;;;;;;;;;;13.70;99.90;;;;;;5015601;28;19916;-88
2022/08/09 02:41:48;;;;;;;;;;;13.70;99.90;;;;;;5031785;28;19912;-87
2022/08/09 02:44:15;;;;;;;;;;;13.70;99.90;;;;;;5015568;28;19911;-87
2022/08/09 02:46:42;;;;;;;;;;;13.70;99.90;;;;;;5017033;28;19987;-88
2022/08/09 02:49:09;;;;;;;;;;;13.60;99.90;;;;;;5022147;28;19909;-88
2022/08/09 02:51:36;;;;;;;;;;;13.50;99.90;;;;;;5025095;28;20612;-89
2022/08/09 02:54:02;;;;;;;;;;;13.50;99.90;;;;;;5029290;23;19944;-56
2022/08/09 02:56:30;;;;;;;;;;;13.60;99.90;;;;;;4990881;28;19960;-56
2022/08/09 02:58:57;;;;;;;;;;;13.60;99.90;;;;;;4991829;28;19918;-58
2022/08/09 03:01:23;;;;;;;;;;;13.60;99.90;;;;;;4991716;28;19912;-56
2022/08/09 03:03:48;;;;;;;;;;;13.60;99.90;;;;;;4991567;28;19910;-56
2022/08/09 03:06:14;;;;;;;;;;;13.50;99.90;;;;;;4992005;28;20361;-56
2022/08/09 03:08:44;;;;;;;;;;;13.50;99.90;;;;;;4991593;28;19910;-55
2022/08/09 03:11:12;;;;;;;;;;;13.50;99.90;;;;;;4991409;28;19993;-56
2022/08/09 03:13:38;;;;;;;;;;;13.50;99.90;;;;;;4991473;28;19913;-56
2022/08/09 03:16:03;;;;;;;;;;;13.40;99.90;;;;;;4991643;28;20285;-56
2022/08/09 03:18:29;;;;;;;;;;;13.40;99.90;;;;;;4991452;28;19914;-55
2022/08/09 03:20:56;;;;;;;;;;;13.40;99.90;;;;;;4991243;28;20064;-56
2022/08/09 03:23:21;;;;;;;;;;;13.40;99.90;;;;;;4991711;28;19910;-56
2022/08/09 03:25:48;;;;;;;;;;;13.40;99.90;;;;;;4991401;28;20250;-55
2022/08/09 03:28:13;;;;;;;;;;;13.30;99.90;;;;;;4991496;28;20400;-56
2022/08/09 03:30:39;;;;;;;;;;;13.30;99.90;;;;;;4990938;28;19914;-55
2022/08/09 03:33:06;;;;;;;;;;;13.30;99.90;;;;;;4991427;28;19909;-55
2022/08/09 03:35:31;;;;;;;;;;;13.30;99.90;;;;;;4990975;28;19984;-56
2022/08/09 03:37:57;;;;;;;;;;;13.30;99.90;;;;;;4991183;28;20628;-56
2022/08/09 03:40:22;;;;;;;;;;;13.30;99.90;;;;;;4990824;28;19910;-56
2022/08/09 03:42:48;;;;;;;;;;;13.30;99.90;;;;;;4991252;28;19916;-56
2022/08/09 03:45:13;;;;;;;;;;;13.20;99.90;;;;;;4991400;28;19922;-56
2022/08/09 03:47:39;;;;;;;;;;;13.30;99.90;;;;;;4991215;28;20349;-57
2022/08/09 03:50:07;;;;;;;;;;;13.20;99.90;;;;;;4990987;28;20328;-57
2022/08/09 03:52:34;;;;;;;;;;;13.20;99.90;;;;;;4990318;28;19964;-57
2022/08/09 03:55:01;;;;;;;;;;;13.20;99.90;;;;;;4990770;28;20349;-57
2022/08/09 03:57:28;;;;;;;;;;;13.20;99.90;;;;;;4991052;28;19913;-57
2022/08/09 03:59:53;;;;;;;;;;;13.10;99.90;;;;;;4991024;28;19940;-57
2022/08/09 04:02:19;;;;;;;;;;;13.10;99.90;;;;;;4991169;28;20400;-57
2022/08/09 04:04:45;;;;;;;;;;;13.10;99.90;;;;;;4991303;28;20294;-58
2022/08/09 04:07:10;;;;;;;;;;;13.10;99.90;;;;;;4990992;28;20276;-58
2022/08/09 04:09:36;;;;;;;;;;;13.10;99.90;;;;;;4990983;28;19956;-57
2022/08/09 04:12:22;;;;;;;;;;;13.00;99.90;;;;;;4990670;28;20384;-57
2022/08/09 04:14:47;;;;;;;;;;;13.00;99.90;;;;;;4973586;28;19910;-57
2022/08/09 04:17:13;;;;;;;;;;;13.00;99.90;;;;;;4990997;28;19916;-56
2022/08/09 04:19:38;;;;;;;;;;;13.10;99.90;;;;;;4990679;28;19949;-57
2022/08/09 04:22:04;;;;;;;;;;;13.10;99.90;;;;;;4990882;28;19948;-57
2022/08/09 04:24:30;;;;;;;;;;;13.20;99.90;;;;;;4990907;28;19909;-57
2022/08/09 04:26:56;;;;;;;;;;;13.30;99.90;;;;;;4990726;28;19913;-57
2022/08/09 04:29:21;;;;;;;;;;;13.20;99.90;;;;;;4990805;28;19957;-57
2022/08/09 04:31:47;;;;;;;;;;;13.20;99.90;;;;;;4990772;28;20268;-57
2022/08/09 04:34:12;;;;;;;;;;;13.20;99.90;;;;;;4990584;28;20382;-57
2022/08/09 04:36:38;;;;;;;;;;;13.20;99.90;;;;;;4990526;28;20001;-57
2022/08/09 04:39:07;;;;;;;;;;;13.30;99.90;;;;;;4973148;28;19921;-57
2022/08/09 04:41:33;;;;;;;;;;;13.30;99.90;;;;;;4990599;28;19906;-57
2022/08/09 04:43:59;;;;;;;;;;;13.40;99.90;;;;;;4990590;28;19936;-57
2022/08/09 04:46:24;;;;;;;;;;;13.40;99.90;;;;;;4990540;28;20345;-56
2022/08/09 04:48:50;;;;;;;;;;;13.40;99.90;;;;;;4990412;28;20515;-58
2022/08/09 04:51:16;;;;;;;;;;;13.40;99.90;;;;;;4990827;28;19918;-57
2022/08/09 04:53:41;;;;;;;;;;;13.50;99.90;;;;;;4990507;28;19972;-57
2022/08/09 04:56:07;;;;;;;;;;;13.60;99.90;;;;;;4990412;28;19910;-57
2022/08/09 04:58:33;;;;;;;;;;;13.70;99.90;;;;;;4990479;28;19961;-56
2022/08/09 05:01:00;;;;;;;;;;;13.70;99.90;;;;;;4990415;28;20348;-57
2022/08/09 05:03:25;;;;;;;;;;;13.80;99.90;;;;;;4991748;28;19956;-59
2022/08/09 05:05:51;;;;;;;;;;;14.00;99.90;;;;;;4993818;28;20008;-57
2022/08/09 05:08:17;;;;;;;;;;;14.00;99.90;;;;;;4994032;28;19912;-57
2022/08/09 05:10:43;;;;;;;;;;;14.20;99.90;;;;;;4993783;28;20015;-57
2022/08/09 05:13:09;;;;;;;;;;;14.30;99.90;;;;;;4994048;28;19944;-56
2022/08/09 05:15:34;;;;;;;;;;;14.30;99.90;;;;;;4993824;28;19945;-57
2022/08/09 05:18:00;;;;;;;;;;;14.30;99.90;;;;;;4993657;28;20675;-57
2022/08/09 05:20:25;;;;;;;;;;;14.40;99.90;;;;;;4993859;28;20399;-57
2022/08/09 05:22:52;;;;;;;;;;;14.40;99.90;;;;;;4993938;28;19922;-57
2022/08/09 05:25:18;;;;;;;;;;;14.60;99.90;;;;;;4993689;28;19917;-57
2022/08/09 05:27:44;;;;;;;;;;;14.70;99.90;;;;;;4993455;28;19914;-57
2022/08/09 05:30:10;;;;;;;;;;;14.80;99.90;;;;;;4993637;28;19910;-57
2022/08/09 05:32:35;;;;;;;;;;;14.90;99.90;;;;;;4993470;28;19918;-57
2022/08/09 05:35:01;;;;;;;;;;;14.90;99.90;;;;;;4993558;28;19963;-57
2022/08/09 05:37:26;;;;;;;;;;;15.00;99.90;;;;;;4992076;28;19910;-57
2022/08/09 05:39:52;;;;;;;;;;;15.20;99.90;;;;;;4991883;28;20258;-58
2022/08/09 05:42:18;;;;;;;;;;;15.30;99.90;;;;;;4993197;28;20272;-57
2022/08/09 05:44:43;;;;;;;;;;;15.40;99.90;;;;;;4993345;28;19909;-57
2022/08/09 05:47:09;;;;;;;;;;;15.40;99.90;;;;;;4993249;28;19906;-57
2022/08/09 05:49:34;;;;;;;;;;;15.50;99.90;;;;;;4993109;28;20349;-57
2022/08/09 05:52:00;;;;;;;;;;;15.60;99.90;;;;;;5008199;28;20272;-57
2022/08/09 05:54:26;;;;;;;;;;;15.70;99.90;;;;;;5012837;28;20395;-57
2022/08/09 05:56:51;;;;;;;;;;;15.80;99.90;;;;;;5009671;28;20372;-57
2022/08/09 05:59:18;;;;;;;;;;;16.00;99.90;;;;;;5012495;28;19910;-57
2022/08/09 06:01:44;;;;;;;;;;;16.00;99.90;;;;;;5009073;28;19917;-56
2022/08/09 06:04:09;;;;;;;;;;;16.10;99.90;;;;;;5012863;28;19914;-57
2022/08/09 06:06:35;;;;;;;;;;;16.30;99.90;;;;;;5017343;28;19920;-56
2022/08/09 06:09:01;;;;;;;;;;;16.40;99.90;;;;;;5019276;28;19924;-56
2022/08/09 06:11:26;;;;;;;;;;;16.60;99.90;;;;;;5015347;28;19924;-57
2022/08/09 06:13:52;;;;;;;;;;;16.70;99.90;;;;;;5021100;28;19920;-56
2022/08/09 06:16:17;;;;;;;;;;;16.80;99.90;;;;;;5019418;28;19944;-56
2022/08/09 06:18:43;;;;;;;;;;;16.90;99.90;;;;;;5020965;28;19909;-56
2022/08/09 06:21:09;;;;;;;;;;;16.90;99.90;;;;;;5020808;28;19905;-56
2022/08/09 06:23:34;;;;;;;;;;;17.00;99.90;;;;;;5021464;28;19909;-56
2022/08/09 06:26:00;;;;;;;;;;;17.20;99.90;;;;;;5022682;28;19911;-57
2022/08/09 06:28:25;;;;;;;;;;;17.40;99.90;;;;;;5019956;28;20245;-56
2022/08/09 06:30:51;;;;;;;;;;;17.60;99.90;;;;;;5011658;28;19919;-56
2022/08/09 06:33:16;;;;;;;;;;;17.70;99.90;;;;;;5011938;28;19964;-56
2022/08/09 06:35:42;;;;;;;;;;;17.90;99.90;;;;;;5012049;28;19913;-57
2022/08/09 06:38:08;;;;;;;;;;;18.30;99.90;;;;;;5011709;28;19906;-56
2022/08/09 06:40:33;;;;;;;;;;;18.40;99.90;;;;;;5003077;28;20371;-56
2022/08/09 06:43:02;;;;;;;;;;;18.60;99.90;;;;;;5031540;28;19919;-57
2022/08/09 06:45:28;;;;;;;;;;;18.70;99.90;;;;;;5031415;28;19913;-56
2022/08/09 06:47:53;;;;;;;;;;;18.80;99.90;;;;;;5028194;28;19909;-58
2022/08/09 06:50:19;;;;;;;;;;;19.00;99.90;;;;;;5019729;28;19917;-58
2022/08/09 06:52:44;;;;;;;;;;;19.10;99.90;;;;;;5022220;28;20260;-59
2022/08/09 06:55:13;;;;;;;;;;;19.30;99.90;;;;;;5019529;28;20520;-58
2022/08/09 06:57:38;;;;;;;;;;;19.40;99.90;;;;;;5021508;28;20394;-58
2022/08/09 07:00:04;;;;;;;;;;;19.60;99.90;;;;;;5025885;28;20591;-57
2022/08/09 07:02:30;;;;;;;;;;;19.60;99.90;;;;;;5031419;28;19931;-56
2022/08/09 07:04:56;;;;;;;;;;;19.80;99.90;;;;;;5030724;28;20253;-56
2022/08/09 07:07:21;;;;;;;;;;;19.80;99.90;;;;;;5029355;28;20264;-56
2022/08/09 07:09:47;;;;;;;;;;;19.90;99.90;;;;;;5030131;28;19970;-56
2022/08/09 07:12:13;;;;;;;;;;;20.10;99.90;;;;;;5030810;28;19962;-56
2022/08/09 07:14:41;;;;;;;;;;;20.30;99.90;;;;;;5030858;28;19952;-56
2022/08/09 07:17:07;;;;;;;;;;;20.30;99.90;;;;;;5031176;28;19916;-57
2022/08/09 07:19:32;;;;;;;;;;;20.20;99.90;;;;;;5030533;28;20284;-57
2022/08/09 07:21:58;;;;;;;;;;;20.30;99.90;;;;;;5030652;28;19971;-57
2022/08/09 07:24:25;;;;;;;;;;;20.50;99.90;;;;;;5029211;28;19916;-58
2022/08/09 07:26:50;;;;;;;;;;;20.50;99.90;;;;;;5027653;28;19959;-55
2022/08/09 07:29:16;;;;;;;;;;;20.80;99.90;;;;;;5010332;28;20336;-56
2022/08/09 07:31:42;;;;;;;;;;;20.90;99.90;;;;;;5017005;28;20287;-55
2022/08/09 07:34:08;;;;;;;;;;;21.00;99.90;;;;;;5025151;28;19910;-56
2022/08/09 07:36:35;;;;;;;;;;;21.10;99.90;;;;;;5018282;28;19963;-56
2022/08/09 07:39:00;;;;;;;;;;;21.20;99.60;;;;;;5030086;28;19905;-57
2022/08/09 07:41:26;;;;;;;;;;;21.20;99.20;;;;;;5030965;28;19924;-57
2022/08/09 07:43:52;;;;;;;;;;;21.20;98.20;;;;;;5040351;28;20014;-56
2022/08/09 07:46:17;;;;;;;;;;;21.30;97.80;;;;;;5017364;28;19913;-56
2022/08/09 07:48:43;;;;;;;;;;;21.40;97.20;;;;;;5005313;28;19909;-56
2022/08/09 07:51:08;;;;;;;;;;;21.50;97.20;;;;;;5008518;28;19913;-56
2022/08/09 07:53:34;;;;;;;;;;;21.60;97.70;;;;;;5009025;28;19912;-56
2022/08/09 07:56:00;;;;;;;;;;;21.50;96.10;;;;;;5009162;28;19920;-57
2022/08/09 07:58:25;;;;;;;;;;;21.60;95.70;;;;;;5009419;28;19916;-61
2022/08/09 08:00:51;;;;;;;;;;;21.50;96.70;;;;;;5009531;28;19916;-56
2022/08/09 08:03:17;;;;;;;;;;;21.80;96.90;;;;;;5009468;28;20272;-56
2022/08/09 08:05:42;;;;;;;;;;;21.80;96.00;;;;;;5008390;28;20276;-58
2022/08/09 08:08:08;;;;;;;;;;;21.90;94.30;;;;;;5009383;28;19905;-56
2022/08/09 08:10:34;;;;;;;;;;;22.20;94.40;;;;;;5009222;28;20365;-55
2022/08/09 08:13:00;;;;;;;;;;;22.20;93.50;;;;;;5008047;28;19972;-56
2022/08/09 08:15:25;;;;;;;;;;;22.30;93.50;;;;;;5009914;28;20308;-55
2022/08/09 08:17:51;;;;;;;;;;;22.30;91.00;;;;;;5010279;28;20517;-55
2022/08/09 08:20:18;;;;;;;;;;;22.50;91.40;;;;;;5010176;28;19906;-56
2022/08/09 08:22:43;;;;;;;;;;;22.70;91.00;;;;;;5010363;28;19913;-56
2022/08/09 08:25:09;;;;;;;;;;;22.70;88.10;;;;;;5010428;28;19905;-55
2022/08/09 08:27:35;;;;;;;;;;;22.70;86.20;;;;;;5010396;28;19996;-56
2022/08/09 08:30:00;;;;;;;;;;;22.90;85.70;;;;;;5010073;28;19909;-56
2022/08/09 08:32:26;;;;;;;;;;;22.90;88.60;;;;;;5010402;28;20012;-56
2022/08/09 08:34:53;;;;;;;;;;;23.00;89.20;;;;;;5010448;28;19955;-57
2022/08/09 08:37:18;;;;;;;;;;;23.20;86.90;;;;;;5010137;28;19909;-56
2022/08/09 08:39:45;;;;;;;;;;;23.30;84.90;;;;;;5013420;28;19916;-56
2022/08/09 08:42:11;;;;;;;;;;;23.30;83.50;;;;;;5013837;28;20008;-56
2022/08/09 08:44:37;;;;;;;;;;;23.60;86.80;;;;;;5013655;28;20011;-56
2022/08/09 08:47:03;;;;;;;;;;;23.70;84.90;;;;;;5013931;28;20000;-56
2022/08/09 08:49:29;;;;;;;;;;;23.70;83.40;;;;;;5013633;28;20383;-56
2022/08/09 08:51:55;;;;;;;;;;;23.90;84.00;;;;;;4995930;28;19917;-56
2022/08/09 08:54:21;;;;;;;;;;;23.70;79.40;;;;;;5013471;28;20328;-56
2022/08/09 08:56:47;;;;;;;;;;;23.90;80.90;;;;;;5013721;28;19909;-56
2022/08/09 08:59:13;;;;;;;;;;;24.00;81.70;;;;;;5013614;28;19909;-56
2022/08/09 09:01:41;;;;;;;;;;;24.10;80.60;;;;;;5013515;28;19960;-56
2022/08/09 09:04:08;;;;;;;;;;;24.20;78.90;;;;;;5013619;28;19987;-56
2022/08/09 09:06:35;;;;;;;;;;;24.20;77.40;;;;;;5013695;28;19913;-56
2022/08/09 09:09:02;;;;;;;;;;;24.20;79.50;;;;;;5013306;28;19915;-56
2022/08/09 09:11:28;;;;;;;;;;;24.40;75.90;;;;;;5013328;28;19926;-56
2022/08/09 09:13:54;;;;;;;;;;;24.40;73.50;;;;;;5013416;28;19915;-56
2022/08/09 09:16:20;;;;;;;;;;;24.50;74.60;;;;;;5013206;28;19912;-56
2022/08/09 09:18:45;;;;;;;;;;;24.40;74.80;;;;;;5013055;28;19910;-56
2022/08/09 09:21:11;;;;;;;;;;;24.50;74.60;;;;;;5013231;28;19916;-56
2022/08/09 09:23:43;;;;;;;;;;;24.40;74.30;;;;;;5013168;28;19955;-56
2022/08/09 09:26:10;;;;;;;;;;;24.10;72.10;;;;;;5013126;28;19909;-56
2022/08/09 09:28:36;;;;;;;;;;;24.00;75.10;;;;;;5012856;28;20535;-56
2022/08/09 09:31:04;;;;;;;;;;;24.20;77.00;;;;;;5012883;28;20004;-55
2022/08/09 09:33:33;;;;;;;;;;;24.50;75.30;;;;;;5012842;28;19979;-55
2022/08/09 09:36:03;;;;;;;;;;;24.70;74.30;;;;;;5012781;28;19906;-56
2022/08/09 09:38:39;;;;;;;;;;;24.90;70.60;;;;;;5012587;28;19912;-56
2022/08/09 09:41:05;;;;;;;;;;;25.00;71.30;;;;;;4995388;28;19994;-56
2022/08/09 09:43:30;;;;;;;;;;;24.70;69.30;;;;;;5012826;28;20026;-56
2022/08/09 09:45:56;;;;;;;;;;;24.50;67.50;;;;;;5012644;28;19910;-56
2022/08/09 09:48:22;;;;;;;;;;;24.40;71.30;;;;;;4995124;28;19917;-56
2022/08/09 09:50:49;;;;;;;;;;;24.40;70.30;;;;;;5011357;28;19913;-56
2022/08/09 09:53:19;;;;;;;;;;;24.50;71.10;;;;;;5012768;28;19906;-56
2022/08/09 09:55:51;;;;;;;;;;;24.30;72.00;;;;;;5012520;28;19925;-55
2022/08/09 09:58:16;;;;;;;;;;;24.00;70.20;;;;;;5012485;28;19916;-56
2022/08/09 10:00:44;;;;;;;;;;;23.80;71.20;;;;;;5012221;28;19913;-56
2022/08/09 10:03:09;;;;;;;;;;;23.90;75.10;;;;;;5012357;28;19909;-56
2022/08/09 10:05:35;;;;;;;;;;;24.20;73.40;;;;;;5012290;28;19913;-55
2022/08/09 10:08:03;;;;;;;;;;;23.90;71.00;;;;;;5012475;28;19909;-55
2022/08/09 10:10:29;;;;;;;;;;;23.90;71.40;;;;;;5012002;28;19913;-56
2022/08/09 10:12:55;;;;;;;;;;;24.30;74.40;;;;;;5012562;28;19913;-56
2022/08/09 10:15:20;;;;;;;;;;;24.50;71.60;;;;;;5012051;28;20276;-56
2022/08/09 10:17:47;;;;;;;;;;;24.40;71.20;;;;;;5011999;28;19913;-55
2022/08/09 10:20:18;;;;;;;;;;;24.00;71.30;;;;;;5011744;28;20265;-56
2022/08/09 10:22:45;;;;;;;;;;;23.90;71.20;;;;;;5012137;28;19910;-56
2022/08/09 10:25:10;;;;;;;;;;;23.80;74.40;;;;;;5012154;28;19920;-56
2022/08/09 10:27:36;;;;;;;;;;;24.10;77.30;;;;;;5011994;28;19917;-55
2022/08/09 10:30:05;;;;;;;;;;;24.40;76.70;;;;;;5011648;28;20345;-56
2022/08/09 10:32:32;;;;;;;;;;;24.70;74.20;;;;;;5011488;28;20432;-57
2022/08/09 10:34:58;;;;;;;;;;;25.20;77.40;;;;;;5012031;28;19909;-56
2022/08/09 10:37:23;;;;;;;;;;;25.20;71.40;;;;;;5011935;28;20599;-56
2022/08/09 10:39:50;;;;;;;;;;;24.80;68.60;;;;;;5011520;28;20366;-56
2022/08/09 10:42:17;;;;;;;;;;;24.80;71.90;;;;;;5011242;28;19905;-56
2022/08/09 10:44:45;;;;;;;;;;;25.00;72.60;;;;;;5011535;28;19909;-56
2022/08/09 10:47:11;;;;;;;;;;;25.50;73.80;;;;;;5011573;28;19925;-55
2022/08/09 10:49:44;;;;;;;;;;;25.80;72.80;;;;;;5011674;28;20316;-56
2022/08/09 10:52:17;;;;;;;;;;;26.10;72.10;;;;;;5011302;28;19917;-56
2022/08/09 10:54:42;;;;;;;;;;;26.20;67.90;;;;;;5011324;28;19960;-55
2022/08/09 10:57:09;;;;;;;;;;;26.30;66.50;;;;;;5011350;28;19953;-55
2022/08/09 10:59:36;;;;;;;;;;;26.60;71.80;;;;;;5011008;28;20004;-56
2022/08/09 11:02:03;;;;;;;;;;;26.70;68.10;;;;;;5011542;28;19906;-55
2022/08/09 11:04:29;;;;;;;;;;;26.90;66.90;;;;;;5011484;28;19905;-55
2022/08/09 11:06:58;;;;;;;;;;;26.90;68.40;;;;;;5011249;28;19910;-55
2022/08/09 11:09:42;;;;;;;;;;;27.20;65.30;;;;;;5010860;28;19912;-55
2022/08/09 11:12:13;;;;;;;;;;;27.30;68.70;;;;;;5011076;28;20257;-56
2022/08/09 11:14:40;;;;;;;;;;;27.30;66.10;;;;;;5010870;28;19912;-55
2022/08/09 11:17:12;;;;;;;;;;;27.30;62.40;;;;;;5010953;28;20416;-56
2022/08/09 11:19:57;;;;;;;;;;;27.50;64.70;;;;;;5010852;28;19924;-56
2022/08/09 11:22:41;;;;;;;;;;;27.70;63.70;;;;;;5011089;28;19905;-56
2022/08/09 11:25:08;;;;;;;;;;;27.70;60.50;;;;;;5010936;28;20372;-56
2022/08/09 11:27:38;;;;;;;;;;;27.70;60.90;;;;;;5011017;28;19905;-56
2022/08/09 11:30:07;;;;;;;;;;;27.40;61.20;;;;;;5010532;28;19953;-56
2022/08/09 11:32:38;;;;;;;;;;;26.80;61.60;;;;;;5010639;28;19913;-56
2022/08/09 11:35:14;;;;;;;;;;;26.90;62.40;;;;;;5010677;28;19932;-56
2022/08/09 11:37:41;;;;;;;;;;;27.30;63.20;;;;;;5010750;28;19910;-56
2022/08/09 11:40:08;;;;;;;;;;;27.70;64.10;;;;;;5010579;28;19909;-56
2022/08/09 11:42:53;;;;;;;;;;;27.60;59.90;;;;;;5010637;28;19909;-56
2022/08/09 11:45:24;;;;;;;;;;;27.60;64.20;;;;;;5010647;28;20396;-56
2022/08/09 11:47:51;;;;;;;;;;;27.90;59.50;;;;;;5010627;28;19905;-56
2022/08/09 11:50:17;;;;;;;;;;;27.90;58.70;;;;;;5010620;28;19932;-56
2022/08/09 11:52:58;;;;;;;;;;;27.90;60.80;;;;;;5010241;28;20364;-56
2022/08/09 11:55:31;;;;;;;;;;;27.30;60.10;;;;;;5010454;28;19917;-56
2022/08/09 11:58:01;;;;;;;;;;;26.90;62.40;;;;;;5010246;28;19909;-56
2022/08/09 12:00:27;;;;;;;;;;;26.40;63.40;;;;;;5010232;28;19909;-56
2022/08/09 12:02:54;;;;;;;;;;;26.30;66.90;;;;;;5010392;28;19909;-57
2022/08/09 12:05:20;;;;;;;;;;;26.10;64.20;;;;;;5010385;28;19906;-56
2022/08/09 12:07:46;;;;;;;;;;;26.00;67.00;;;;;;5010333;28;19916;-56
2022/08/09 12:10:12;;;;;;;;;;;25.80;65.20;;;;;;5010347;28;19909;-56
2022/08/09 12:12:44;;;;;;;;;;;25.50;65.80;;;;;;5009991;28;19967;-56
2022/08/09 12:15:36;;;;;;;;;;;25.50;66.30;;;;;;5014363;28;19910;-56
2022/08/09 12:18:02;;;;;;;;;;;25.40;67.30;;;;;;5009143;28;19906;-56
2022/08/09 12:20:29;;;;;;;;;;;25.20;65.60;;;;;;5014148;28;19983;-56
2022/08/09 12:22:59;;;;;;;;;;;25.10;65.50;;;;;;5013957;28;19953;-56
2022/08/09 12:25:25;;;;;;;;;;;25.10;67.70;;;;;;5014261;28;19967;-56
2022/08/09 12:28:10;;;;;;;;;;;25.10;68.90;;;;;;5014120;28;20016;-56
2022/08/09 12:30:36;;;;;;;;;;;25.00;68.30;;;;;;5013944;28;19933;-56
2022/08/09 12:33:02;;;;;;;;;;;25.00;69.10;;;;;;5014023;28;19920;-57
2022/08/09 12:35:28;;;;;;;;;;;25.10;68.20;;;;;;5014072;28;20004;-56
2022/08/09 12:37:53;;;;;;;;;;;25.20;68.10;;;;;;5013819;28;19992;-57
2022/08/09 12:40:20;;;;;;;;;;;25.10;66.90;;;;;;5013766;28;20011;-56
2022/08/09 12:42:46;;;;;;;;;;;25.00;70.30;;;;;;5013913;28;20004;-56
2022/08/09 12:45:12;;;;;;;;;;;24.90;68.60;;;;;;5013868;28;19999;-56
2022/08/09 12:47:37;;;;;;;;;;;24.80;68.60;;;;;;5013584;28;19906;-56
2022/08/09 12:50:16;;;;;;;;;;;24.70;72.00;;;;;;5013608;28;19905;-56
2022/08/09 12:52:42;;;;;;;;;;;24.50;68.80;;;;;;5013753;28;19918;-57
2022/08/09 12:55:11;;;;;;;;;;;24.50;72.80;;;;;;5013446;28;19999;-56
2022/08/09 12:57:41;;;;;;;;;;;24.40;71.30;;;;;;5013604;28;19963;-56
2022/08/09 13:00:16;;;;;;;;;;;24.30;71.60;;;;;;5013281;28;20008;-56
2022/08/09 13:03:08;;;;;;;;;;;24.20;71.80;;;;;;5013387;28;19944;-56
2022/08/09 13:05:41;;;;;;;;;;;24.00;70.60;;;;;;5009609;28;19996;-56
2022/08/09 13:08:13;;;;;;;;;;;24.10;73.50;;;;;;5013489;28;19931;-57
2022/08/09 13:10:43;;;;;;;;;;;24.10;74.50;;;;;;5013101;28;19952;-56
2022/08/09 13:13:08;;;;;;;;;;;24.10;74.10;;;;;;5013257;28;19949;-56
2022/08/09 13:15:34;;;;;;;;;;;24.10;75.30;;;;;;5013494;28;20387;-56
2022/08/09 13:18:02;;;;;;;;;;;24.10;73.30;;;;;;5013090;28;19905;-56
2022/08/09 13:20:32;;;;;;;;;;;24.10;73.00;;;;;;5012854;28;19996;-56
2022/08/09 13:22:59;;;;;;;;;;;24.20;74.20;;;;;;5012990;28;19910;-56
2022/08/09 13:25:24;;;;;;;;;;;24.30;74.60;;;;;;5012050;28;19996;-55
2022/08/09 13:27:50;;;;;;;;;;;24.40;78.70;;;;;;5011660;28;19909;-56
2022/08/09 13:30:18;;;;;;;;;;;24.50;76.30;;;;;;5012630;28;19909;-56
2022/08/09 13:32:48;;;;;;;;;;;24.70;74.20;;;;;;5012782;28;19963;-56
2022/08/09 13:35:15;;;;;;;;;;;25.10;74.80;;;;;;5012860;28;19948;-56
2022/08/09 13:37:41;;;;;;;;;;;25.30;74.50;;;;;;5012847;28;19912;-56
2022/08/09 13:40:08;;;;;;;;;;;25.40;69.40;;;;;;5012680;28;19909;-56
2022/08/09 13:42:34;;;;;;;;;;;25.70;69.80;;;;;;5012807;28;19909;-56
2022/08/09 13:45:00;;;;;;;;;;;25.70;72.60;;;;;;5012361;28;19912;-56
2022/08/09 13:47:26;;;;;;;;;;;25.80;72.20;;;;;;5012501;28;19960;-57
2022/08/09 13:49:51;;;;;;;;;;;26.30;70.00;;;;;;5012476;28;19952;-56
2022/08/09 13:52:17;;;;;;;;;;;26.70;68.70;;;;;;5012589;28;19913;-56
2022/08/09 13:54:43;;;;;;;;;;;26.60;67.70;;;;;;4992512;28;19961;-56
2022/08/09 13:57:08;;;;;;;;;;;26.40;67.30;;;;;;4973664;28;19960;-56
2022/08/09 13:59:34;;;;;;;;;;;26.30;68.10;;;;;;4973186;28;19937;-56
2022/08/09 14:02:00;;;;;;;;;;;26.20;70.30;;;;;;4973405;28;19977;-56
2022/08/09 14:04:26;;;;;;;;;;;26.10;67.80;;;;;;4973232;28;20609;-56
2022/08/09 14:06:55;;;;;;;;;;;26.10;69.00;;;;;;4973382;28;19917;-57
2022/08/09 14:09:20;;;;;;;;;;;26.10;68.40;;;;;;4973064;28;20389;-56
2022/08/09 14:11:46;;;;;;;;;;;26.20;68.10;;;;;;4973638;28;19914;-56
2022/08/09 14:14:11;;;;;;;;;;;26.10;65.60;;;;;;4973177;28;19956;-56
2022/08/09 14:16:37;;;;;;;;;;;25.90;66.30;;;;;;4973145;28;19906;-56
2022/08/09 14:19:02;;;;;;;;;;;26.00;66.70;;;;;;4972846;28;19909;-56
2022/08/09 14:21:28;;;;;;;;;;;26.00;67.40;;;;;;4973114;28;19910;-56